• Join FlightAware (Why Join?)
  • Login
  • US Flag 
11:02PM EDT


 

Airport Tracker/Info


-or-


 

Live Flight TrackerFlight Track Log ✈ WIG8300 ✈ 16-May-2013 ✈ KEWR - KPVD

Flight Track Log - Related Links

Times and Time Zones

All times are in EDT time to prevent confusion due to time zone crossing. See the WIG8300 flight status page for this flight to view local times or setup timezone preferences in your user account.

Time Position Orientation Groundspeed Altitude Reporting Facility
EDT Latitude Longitude Course Direction KTS MPH feet Rate Location/Type
05:52AM 41.2833 -73.5833 63° Northeast 193 222 7,000  Level New York TRACON
05:53AM 41.3000 -73.5333 66° East 189 217 7,000  Level New York TRACON
05:54AM 41.3167 -73.4667 72° East 190 219 7,000  Level New York TRACON
05:55AM 41.2162 -72.8096 63° Northeast  Level Estimated
05:55AM 41.3500 -73.4000 56° Northeast 186 214 7,000  Level New York TRACON
05:56AM 41.2370 -72.7543 63° Northeast  Level Estimated
05:56AM 41.3667 -73.3500 66° East 185 213 7,000  Level New York TRACON
05:57AM 41.2578 -72.6990 63° Northeast  Level Estimated
05:57AM 41.3833 -73.2833 72° East 184 212 7,000  Level New York TRACON
05:58AM 41.2785 -72.6436 63° Northeast  Level Estimated
05:58AM 41.3908 -73.2728 47° Northeast 184 212 7,000  Level Boston Center
05:59AM 41.4164 -73.1958 66° East 185 213 7,000  Level Boston Center
06:00AM 41.4375 -73.1350 65° Northeast 185 213 7,000  Level Boston Center
06:01AM 41.4586 -73.0772 64° Northeast 186 214 7,000  Level Boston Center
06:02AM 41.4797 -73.0164 65° Northeast 188 216 7,000  Level Boston Center
06:03AM 41.5167 -72.9167 64° Northeast 192 221 7,000  Level New York TRACON
06:04AM 41.5242 -72.8947 65° Northeast 189 217 7,000  Level Boston Center
06:05AM 41.5667 -72.7833 63° Northeast 191 220 7,100  Climbing New York TRACON
06:06AM 41.5667 -72.7167 90° East 196 226 7,100  Level New York TRACON
06:07AM 41.5833 -72.6500 71° East 203 234 7,100  Level New York TRACON
06:08AM 41.5833 -72.5667 90° East 202 232 7,100  Level New York TRACON
06:09AM 41.6000 -72.5000 71° East 200 230 7,100  Level New York TRACON
06:10AM 41.6167 -72.4333 71° East 199 229 7,100  Level New York TRACON
06:11AM 41.6167 -72.3500 90° East 206 237 7,100  Level New York TRACON
06:13AM 41.6327 -72.2753 74° East  Level FlightAware Approximate
06:20AM 41.6833 -71.8470 90° East  Level FlightAware Approximate
06:21AM 41.6909 -71.7864 71° East  Level FlightAware Approximate
06:22AM 41.7000 -71.7261 90° East  Level FlightAware Approximate
06:23AM 41.7000 -71.6638 90° East  Level FlightAware Approximate
06:24AM 41.7052 -71.6023 77° East  Level FlightAware Approximate
06:25AM 41.7153 -71.5415 77° East  Level FlightAware Approximate
06:26AM 41.7167 -71.4795 90° East  Level FlightAware Approximate
06:27AM 41.7240 -71.4282 90° East  Level Estimated
06:28AM 41.7240 -71.4282 90° East  Level Estimated
06:29AM 41.7240 -71.4282 90° East  Level Estimated
06:30AM 41.7240 -71.4282 90° East  Level Estimated
06:31AM 41.7240 -71.4282 90° East  Level Estimated
06:32AM 41.7240 -71.4282 90° East  Level Estimated
06:33AM 41.7240 -71.4282 90° East  Level Estimated
06:34AM 41.7240 -71.4282 90° East  Level Estimated
06:35AM 41.7240 -71.4282 90° East  Level Estimated
06:36AM 41.7240 -71.4282 90° East  Level Estimated
06:37AM 41.7240 -71.4282 90° East  Level Estimated
06:38AM 41.7240 -71.4282 90° East  Level Estimated
06:39AM 41.7240 -71.4282 90° East  Level Estimated
06:40AM 41.7240 -71.4282 90° East  Level Estimated
06:41AM 41.7240 -71.4282 90° East  Level Estimated
06:42AM 41.7240 -71.4282 90° East  Level Estimated